Time;durP1;ratioP1;P1;durP2;ratioP2;P2;SDS_P1;SDS_P2;PMS_P1;PMS_P2;Temp;Humidity;BMP_temperature;BMP_pressure;BME280_temperature;BME280_humidity;BME280_pressure;Samples;Min_cycle;Max_cycle;Signal;HPM_P1;HPM_P2
2023/07/21 00:02:24;;;;;;;0.30;0.30;;;17.00;99.90;;;;;;5095148;28;20035;-71
2023/07/21 00:04:50;;;;;;;0.10;0.10;;;17.00;99.90;;;;;;5095698;28;20055;-71
2023/07/21 00:07:15;;;;;;;0.10;0.10;;;17.20;99.90;;;;;;5095408;28;20027;-72
2023/07/21 00:09:43;;;;;;;0.00;0.00;;;17.20;99.90;;;;;;5094235;28;20035;-71
2023/07/21 00:12:09;;;;;;;0.00;0.00;;;17.30;99.90;;;;;;5095021;28;20604;-70
2023/07/21 00:14:35;;;;;;;0.00;0.00;;;17.40;99.90;;;;;;5095291;28;20115;-70
2023/07/21 00:17:04;;;;;;;0.10;0.10;;;17.20;99.90;;;;;;5095038;28;20472;-73
2023/07/21 00:19:30;;;;;;;0.10;0.10;;;17.00;99.90;;;;;;5095119;28;20040;-71
2023/07/21 00:21:56;;;;;;;0.10;0.10;;;17.00;99.90;;;;;;5094920;28;20069;-72
2023/07/21 00:24:22;;;;;;;0.00;0.00;;;16.90;99.90;;;;;;5095226;28;20086;-71
2023/07/21 00:26:48;;;;;;;0.20;0.20;;;16.80;99.90;;;;;;5094398;28;20040;-71
2023/07/21 00:29:13;;;;;;;0.10;0.10;;;16.80;99.90;;;;;;5095065;28;20086;-72
2023/07/21 00:31:39;;;;;;;0.10;0.10;;;17.00;99.90;;;;;;5093614;28;20028;-72
2023/07/21 00:34:08;;;;;;;0.00;0.00;;;16.50;99.90;;;;;;5094747;28;20059;-71
2023/07/21 00:36:34;;;;;;;0.00;0.00;;;16.30;99.90;;;;;;5093689;28;20024;-72
2023/07/21 00:39:00;;;;;;;0.03;0.03;;;16.40;99.90;;;;;;5094467;28;20385;-71
2023/07/21 00:41:26;;;;;;;0.10;0.10;;;16.40;99.90;;;;;;5093178;28;20115;-71
2023/07/21 00:43:52;;;;;;;0.10;0.10;;;16.40;99.90;;;;;;5093172;28;20024;-71
2023/07/21 00:46:18;;;;;;;0.10;0.10;;;16.20;99.90;;;;;;5093407;28;20032;-71
2023/07/21 00:48:44;;;;;;;0.10;0.10;;;16.20;99.90;;;;;;5094406;28;20358;-70
2023/07/21 00:51:10;;;;;;;0.00;0.00;;;16.20;99.90;;;;;;5093164;28;20032;-70
2023/07/21 00:53:36;;;;;;;0.08;0.08;;;16.20;99.90;;;;;;5094484;28;20022;-70
2023/07/21 00:56:05;;;;;;;0.65;0.65;;;16.10;99.90;;;;;;5092814;28;20076;-70
2023/07/21 00:58:32;;;;;;;1.35;0.82;;;16.30;99.90;;;;;;5086460;28;20154;-70
2023/07/21 01:00:57;;;;;;;0.20;0.20;;;16.20;99.90;;;;;;5086018;28;20052;-69
2023/07/21 01:03:24;;;;;;;0.00;0.00;;;16.20;99.90;;;;;;5093949;28;20043;-71
2023/07/21 01:05:53;;;;;;;0.10;0.10;;;16.20;99.90;;;;;;5092963;28;20127;-70
2023/07/21 01:08:22;;;;;;;0.00;0.00;;;16.30;99.90;;;;;;5092878;28;20024;-70
2023/07/21 01:10:50;;;;;;;0.63;0.63;;;16.40;99.90;;;;;;5094236;28;20051;-70
2023/07/21 01:13:18;;;;;;;0.10;0.10;;;16.30;99.90;;;;;;5093948;28;20085;-70
2023/07/21 01:15:49;;;;;;;0.10;0.10;;;16.20;99.90;;;;;;5092809;28;20055;-70
2023/07/21 01:18:16;;;;;;;2.85;2.70;;;16.30;99.90;;;;;;5090898;28;20112;-69
2023/07/21 01:20:43;;;;;;;0.15;0.15;;;16.10;99.90;;;;;;5080731;28;20070;-70
2023/07/21 01:23:35;;;;;;;0.30;0.30;;;15.80;99.90;;;;;;5086589;28;20410;-70
2023/07/21 01:26:01;;;;;;;0.10;0.10;;;15.50;99.90;;;;;;5084869;28;20039;-73
2023/07/21 01:28:29;;;;;;;0.65;0.65;;;15.50;99.90;;;;;;5092199;28;20468;-73
2023/07/21 01:30:56;;;;;;;0.00;0.00;;;15.40;99.90;;;;;;5092405;28;20016;-75
2023/07/21 01:33:22;;;;;;;0.10;0.10;;;15.80;99.90;;;;;;5092401;28;20097;-71
2023/07/21 01:35:49;;;;;;;0.10;0.10;;;16.00;99.90;;;;;;5093673;28;20163;-70
2023/07/21 01:38:18;;;;;;;0.10;0.10;;;16.30;99.90;;;;;;5092192;28;20024;-71
2023/07/21 01:40:47;;;;;;;0.30;0.30;;;16.20;99.90;;;;;;5091951;28;20024;-72
2023/07/21 01:43:14;;;;;;;0.10;0.10;;;16.20;99.90;;;;;;5092277;28;20032;-72
2023/07/21 01:45:41;;;;;;;0.10;0.10;;;16.10;99.90;;;;;;5092078;28;20047;-70
2023/07/21 01:48:07;;;;;;;0.10;0.10;;;16.00;99.90;;;;;;5093551;28;20028;-71
2023/07/21 01:50:34;;;;;;;0.10;0.10;;;16.00;99.90;;;;;;5093084;28;20025;-71
2023/07/21 01:53:05;;;;;;;0.65;0.43;;;16.00;99.90;;;;;;5083199;28;20506;-72
2023/07/21 01:55:38;;;;;;;0.08;0.08;;;16.10;99.90;;;;;;5077106;28;20040;-72
2023/07/21 01:58:07;;;;;;;0.00;0.00;;;15.90;99.90;;;;;;5058991;28;20020;-71
2023/07/21 02:00:36;;;;;;;0.00;0.00;;;15.90;99.90;;;;;;5081746;28;20111;-71
2023/07/21 02:03:04;;;;;;;0.08;0.08;;;16.00;99.90;;;;;;5091567;28;20031;-70
2023/07/21 02:05:30;;;;;;;0.20;0.20;;;16.00;99.90;;;;;;5092926;28;20040;-72
2023/07/21 02:07:56;;;;;;;0.10;0.10;;;16.00;99.90;;;;;;5091726;28;20024;-71
2023/07/21 02:10:23;;;;;;;0.10;0.10;;;15.90;99.90;;;;;;5090662;28;20480;-73
2023/07/21 02:12:57;;;;;;;0.10;0.10;;;15.90;99.90;;;;;;5091831;28;20499;-70
2023/07/21 02:15:23;;;;;;;2.63;0.95;;;15.60;99.90;;;;;;5092747;28;20024;-70
2023/07/21 02:17:51;;;;;;;0.17;0.17;;;15.60;99.90;;;;;;5091782;28;20384;-73
2023/07/21 02:20:16;;;;;;;0.10;0.10;;;15.60;99.90;;;;;;5092533;28;20040;-71
2023/07/21 02:22:43;;;;;;;0.10;0.10;;;15.70;99.90;;;;;;5091470;28;20027;-70
2023/07/21 02:25:13;;;;;;;0.10;0.10;;;15.60;99.90;;;;;;5092659;28;20024;-70
2023/07/21 02:27:39;;;;;;;0.10;0.10;;;15.50;99.90;;;;;;5091792;28;20073;-70
2023/07/21 02:30:06;;;;;;;0.10;0.10;;;15.50;99.90;;;;;;5091375;28;20027;-70
2023/07/21 02:32:33;;;;;;;0.03;0.03;;;15.70;99.90;;;;;;5088557;28;20357;-70
2023/07/21 02:34:58;;;;;;;0.10;0.10;;;15.70;99.90;;;;;;5088872;28;20111;-70
2023/07/21 02:37:25;;;;;;;0.10;0.10;;;15.70;99.90;;;;;;5082413;28;20032;-70
2023/07/21 02:39:52;;;;;;;0.10;0.10;;;15.70;99.90;;;;;;5080242;28;20017;-70
2023/07/21 02:42:18;;;;;;;0.10;0.10;;;15.60;99.90;;;;;;5078521;28;20037;-71
2023/07/21 02:44:44;;;;;;;0.40;0.40;;;15.80;99.90;;;;;;5091429;28;20123;-70
2023/07/21 02:47:13;;;;;;;0.10;0.10;;;15.70;99.90;;;;;;5091509;28;20020;-71
2023/07/21 02:49:40;;;;;;;0.10;0.10;;;15.80;99.90;;;;;;5085866;28;20537;-71
2023/07/21 02:52:06;;;;;;;0.80;0.73;;;15.60;99.90;;;;;;5082836;28;20028;-71
2023/07/21 02:54:32;;;;;;;0.10;0.10;;;15.70;99.90;;;;;;5091471;28;20016;-72
2023/07/21 02:56:59;;;;;;;0.10;0.10;;;15.70;99.90;;;;;;5092379;28;20031;-70
2023/07/21 02:59:26;;;;;;;1.30;1.15;;;15.50;99.90;;;;;;5091279;28;20024;-70
2023/07/21 03:01:55;;;;;;;0.20;0.20;;;15.50;99.90;;;;;;5091121;28;20036;-70
2023/07/21 03:04:31;;;;;;;0.10;0.10;;;15.40;99.90;;;;;;5091087;28;20039;-70
2023/07/21 03:07:01;;;;;;;0.00;0.00;;;15.30;99.90;;;;;;5082946;28;20028;-71
2023/07/21 03:09:27;;;;;;;0.08;0.08;;;15.30;99.90;;;;;;5085262;28;20510;-70
2023/07/21 03:11:56;;;;;;;0.32;0.32;;;15.50;99.90;;;;;;5091310;28;20024;-70
2023/07/21 03:14:48;;;;;;;0.10;0.10;;;15.50;99.90;;;;;;5086681;28;20039;-70
2023/07/21 03:17:18;;;;;;;4.22;3.83;;;15.40;99.90;;;;;;5091036;28;20384;-71
2023/07/21 03:19:44;;;;;;;0.10;0.10;;;15.20;99.90;;;;;;5091116;28;20024;-71
2023/07/21 03:22:16;;;;;;;0.10;0.10;;;15.20;99.90;;;;;;5094650;28;20042;-71
2023/07/21 03:24:43;;;;;;;0.30;0.30;;;15.10;99.90;;;;;;5094979;28;20123;-71
2023/07/21 03:27:12;;;;;;;0.10;0.10;;;15.10;99.90;;;;;;5094565;28;20031;-71
2023/07/21 03:29:39;;;;;;;0.20;0.20;;;15.20;99.90;;;;;;5094860;28;20032;-70
2023/07/21 03:32:06;;;;;;;0.43;0.43;;;15.40;99.90;;;;;;5094692;28;20064;-70
2023/07/21 03:34:32;;;;;;;0.10;0.10;;;15.30;99.90;;;;;;5077962;28;20036;-70
2023/07/21 03:36:59;;;;;;;0.10;0.10;;;14.80;99.90;;;;;;5094280;28;20020;-71
2023/07/21 03:39:26;;;;;;;0.10;0.10;;;14.80;99.90;;;;;;5094501;28;20028;-71
2023/07/21 03:41:51;;;;;;;0.10;0.10;;;15.00;99.90;;;;;;5080544;28;20473;-70
2023/07/21 03:44:17;;;;;;;0.05;0.05;;;15.10;99.90;;;;;;5094365;28;20042;-69
2023/07/21 03:46:44;;;;;;;0.10;0.10;;;15.10;99.90;;;;;;5094479;28;20601;-70
2023/07/21 03:49:36;;;;;;;0.10;0.10;;;15.00;99.90;;;;;;5094264;28;20111;-69
2023/07/21 03:52:08;;;;;;;0.10;0.10;;;15.00;99.90;;;;;;5094102;28;20440;-69
2023/07/21 03:54:37;;;;;;;8.18;7.43;;;15.20;99.90;;;;;;5094449;28;20024;-70
2023/07/21 03:57:03;;;;;;;0.10;0.10;;;15.30;99.90;;;;;;5095133;28;20476;-70
2023/07/21 03:59:29;;;;;;;0.10;0.10;;;15.30;99.90;;;;;;5093400;28;20039;-69
2023/07/21 04:01:55;;;;;;;0.00;0.00;;;15.10;99.90;;;;;;5093770;28;20468;-69
2023/07/21 04:04:21;;;;;;;0.00;0.00;;;15.00;99.90;;;;;;5093631;28;20028;-71
2023/07/21 04:06:48;;;;;;;0.00;0.00;;;15.10;99.90;;;;;;5077346;28;20050;-70
2023/07/21 04:09:14;;;;;;;0.10;0.10;;;15.00;99.90;;;;;;5093880;28;20535;-70
2023/07/21 04:11:41;;;;;;;0.10;0.10;;;15.10;99.90;;;;;;5093814;28;20077;-69
2023/07/21 04:14:09;;;;;;;0.10;0.10;;;15.10;99.90;;;;;;5094006;28;20016;-70
2023/07/21 04:16:35;;;;;;;0.10;0.10;;;15.20;99.90;;;;;;5095019;28;20016;-70
2023/07/21 04:19:00;;;;;;;0.00;0.00;;;15.20;99.90;;;;;;5093600;28;20422;-69
2023/07/21 04:21:27;;;;;;;0.10;0.10;;;15.20;99.90;;;;;;5095012;28;20028;-69
2023/07/21 04:23:53;;;;;;;0.10;0.10;;;15.20;99.90;;;;;;5093769;28;20376;-70
2023/07/21 04:26:19;;;;;;;0.20;0.20;;;15.10;99.90;;;;;;5093612;28;20043;-69
2023/07/21 04:28:45;;;;;;;0.30;0.30;;;15.10;99.90;;;;;;5095110;28;20024;-69
2023/07/21 04:31:11;;;;;;;0.47;0.47;;;15.00;99.90;;;;;;5093451;28;20495;-70
2023/07/21 04:33:51;;;;;;;0.10;0.10;;;14.60;99.90;;;;;;5092838;28;20058;-70
2023/07/21 04:36:18;;;;;;;0.10;0.10;;;15.00;99.90;;;;;;5093771;28;20024;-70
2023/07/21 04:38:44;;;;;;;0.10;0.10;;;15.40;99.90;;;;;;5093210;28;20472;-69
2023/07/21 04:41:14;;;;;;;0.98;0.75;;;15.40;99.90;;;;;;5084873;28;20028;-70
2023/07/21 04:43:40;;;;;;;0.10;0.10;;;15.40;99.90;;;;;;5087798;28;20047;-70
2023/07/21 04:46:06;;;;;;;0.45;0.30;;;15.50;99.90;;;;;;5093116;28;20145;-70
2023/07/21 04:48:38;;;;;;;0.10;0.10;;;15.60;99.90;;;;;;5092744;28;20528;-70
2023/07/21 04:51:04;;;;;;;0.03;0.03;;;15.80;99.90;;;;;;5093063;28;20024;-70
2023/07/21 04:53:30;;;;;;;0.10;0.10;;;15.70;99.90;;;;;;5094263;28;20383;-70
2023/07/21 04:55:57;;;;;;;0.10;0.10;;;15.60;99.90;;;;;;5092910;28;20084;-71
2023/07/21 04:58:24;;;;;;;0.10;0.10;;;15.80;99.90;;;;;;5092885;28;20024;-70
2023/07/21 05:00:51;;;;;;;0.22;0.22;;;15.90;99.90;;;;;;5092670;28;20039;-70
2023/07/21 05:03:17;;;;;;;0.30;0.30;;;16.00;99.90;;;;;;5075522;28;20028;-70
2023/07/21 05:05:47;;;;;;;0.20;0.20;;;16.10;99.90;;;;;;5092698;28;20036;-70
2023/07/21 05:08:13;;;;;;;0.10;0.10;;;16.00;99.90;;;;;;5092738;28;20487;-70
2023/07/21 05:10:39;;;;;;;0.10;0.10;;;16.30;99.90;;;;;;5094048;28;20024;-70
2023/07/21 05:13:07;;;;;;;0.25;0.25;;;16.30;99.90;;;;;;5092615;28;20024;-70
2023/07/21 05:15:54;;;;;;;0.20;0.20;;;16.30;99.90;;;;;;5092821;28;20055;-71
2023/07/21 05:18:40;;;;;;;1.90;0.80;;;16.40;99.90;;;;;;5092347;28;20028;-70
2023/07/21 05:21:45;;;;;;;0.10;0.10;;;16.70;99.90;;;;;;5086080;28;20396;-70
2023/07/21 05:24:37;;;;;;;0.00;0.00;;;16.70;99.90;;;;;;5091405;28;20028;-70
2023/07/21 05:27:06;;;;;;;1.67;0.75;;;16.90;99.90;;;;;;5092672;28;20097;-71
2023/07/21 05:29:44;;;;;;;1.20;1.20;;;17.20;99.90;;;;;;5092332;28;20020;-70
2023/07/21 05:32:11;;;;;;;0.20;0.20;;;16.90;99.90;;;;;;5092345;28;20388;-70
2023/07/21 05:34:36;;;;;;;0.38;0.38;;;16.50;99.90;;;;;;5092379;28;20020;-70
2023/07/21 05:37:05;;;;;;;0.30;0.30;;;16.50;99.90;;;;;;5078496;28;20031;-70
2023/07/21 05:39:31;;;;;;;1.55;1.08;;;16.40;99.90;;;;;;5092098;28;20476;-69
2023/07/21 05:41:58;;;;;;;0.60;0.60;;;16.20;99.90;;;;;;5078090;28;20028;-70
2023/07/21 05:44:30;;;;;;;0.40;0.40;;;16.30;99.90;;;;;;5092039;28;20028;-70
2023/07/21 05:46:56;;;;;;;0.10;0.10;;;16.30;99.90;;;;;;5092148;28;20032;-69
2023/07/21 05:49:22;;;;;;;3.03;2.83;;;16.50;99.90;;;;;;5093119;28;20024;-70
2023/07/21 05:51:50;;;;;;;0.10;0.10;;;16.70;99.90;;;;;;5092217;28;20032;-69
2023/07/21 05:54:29;;;;;;;1.63;1.52;;;16.90;99.90;;;;;;5092142;28;20069;-70
2023/07/21 05:56:58;;;;;;;2.10;0.75;;;17.10;99.90;;;;;;5092309;28;20028;-70
2023/07/21 05:59:31;;;;;;;0.88;0.88;;;17.10;99.90;;;;;;5079222;28;20097;-69
2023/07/21 06:01:59;;;;;;;1.95;1.85;;;17.30;99.90;;;;;;5091675;28;20036;-70
2023/07/21 06:04:26;;;;;;;0.65;0.65;;;16.70;99.90;;;;;;5091732;28;20039;-70
2023/07/21 06:07:09;;;;;;;1.17;1.00;;;16.80;99.90;;;;;;5092064;28;20111;-70
2023/07/21 06:10:05;;;;;;;2.67;1.65;;;17.00;99.90;;;;;;5087465;28;20302;-69
2023/07/21 06:12:39;;;;;;;0.65;0.65;;;17.30;99.90;;;;;;5092998;28;20024;-70
2023/07/21 06:15:26;;;;;;;0.55;0.55;;;17.40;99.90;;;;;;5091493;28;20035;-70
2023/07/21 06:18:15;;;;;;;0.20;0.20;;;17.50;99.90;;;;;;5077692;28;20036;-70
2023/07/21 06:20:41;;;;;;;0.55;0.55;;;17.60;99.90;;;;;;5091757;28;20032;-73
2023/07/21 06:23:06;;;;;;;0.52;0.52;;;17.40;99.90;;;;;;5092868;28;20020;-71
2023/07/21 06:25:34;;;;;;;3.03;2.05;;;17.40;99.90;;;;;;5091479;28;20040;-71
2023/07/21 06:28:05;;;;;;;0.45;0.45;;;17.50;99.90;;;;;;5086357;28;20016;-73
2023/07/21 06:30:31;;;;;;;0.40;0.40;;;17.80;99.90;;;;;;5062303;28;20020;-75
2023/07/21 06:32:57;;;;;;;2.47;1.13;;;18.00;99.90;;;;;;5073044;28;20062;-74
2023/07/21 06:35:35;;;;;;;2.78;2.20;;;17.60;99.90;;;;;;5077068;28;20111;-71
2023/07/21 06:38:19;;;;;;;11.13;4.55;;;17.40;99.90;;;;;;5073410;28;20054;-75
2023/07/21 06:40:55;;;;;;;0.25;0.25;;;17.40;99.90;;;;;;5079566;28;20024;-74
2023/07/21 06:43:29;;;;;;;1.02;0.73;;;17.50;99.90;;;;;;5090501;28;20020;-74
2023/07/21 06:46:05;;;;;;;0.93;0.75;;;17.90;99.90;;;;;;5091631;28;20032;-74
2023/07/21 06:48:46;;;;;;;0.00;0.00;;;18.20;99.90;;;;;;5090250;28;20024;-74
2023/07/21 06:51:19;;;;;;;0.95;0.95;;;18.20;99.90;;;;;;5090073;28;20024;-73
2023/07/21 06:53:47;;;;;;;1.00;0.85;;;18.10;99.90;;;;;;5092079;28;20024;-74
2023/07/21 06:56:13;;;;;;;5.30;2.50;;;18.30;99.90;;;;;;5092616;28;20032;-70
2023/07/21 06:58:41;;;;;;;1.45;1.35;;;18.00;99.90;;;;;;5086121;28;20024;-71
2023/07/21 07:01:09;;;;;;;0.50;0.50;;;17.90;99.90;;;;;;5094037;28;20484;-69
2023/07/21 07:03:35;;;;;;;3.83;3.40;;;18.40;99.90;;;;;;5094185;28;20040;-69
2023/07/21 07:06:00;;;;;;;3.42;1.85;;;18.70;99.90;;;;;;5093904;28;20465;-69
2023/07/21 07:08:26;;;;;;;2.00;1.20;;;19.00;99.90;;;;;;5094235;28;20103;-70
2023/07/21 07:10:52;;;;;;;1.30;1.20;;;19.20;99.90;;;;;;5094238;28;20028;-70
2023/07/21 07:13:18;;;;;;;16.80;3.55;;;18.60;99.90;;;;;;5095144;28;20023;-69
2023/07/21 07:15:49;;;;;;;12.77;8.85;;;19.00;99.90;;;;;;5094133;28;20079;-71
2023/07/21 07:18:14;;;;;;;5.72;2.67;;;18.60;99.90;;;;;;5094353;28;20034;-70
2023/07/21 07:20:47;;;;;;;3.60;2.58;;;18.60;99.90;;;;;;5088953;28;20115;-69
2023/07/21 07:23:13;;;;;;;1.08;0.47;;;18.80;99.90;;;;;;5092283;28;20476;-69
2023/07/21 07:25:38;;;;;;;23.23;9.25;;;18.90;99.90;;;;;;5093908;28;20063;-70
2023/07/21 07:28:04;;;;;;;10.93;4.45;;;19.10;99.90;;;;;;5094293;28;20465;-70
2023/07/21 07:30:33;;;;;;;0.65;0.63;;;19.40;99.90;;;;;;5094873;28;20036;-70
2023/07/21 07:32:59;;;;;;;7.95;2.88;;;19.50;99.90;;;;;;5094268;28;20039;-69
2023/07/21 07:35:25;;;;;;;9.90;8.88;;;20.10;99.90;;;;;;5088333;28;20032;-70
2023/07/21 07:37:50;;;;;;;1.77;1.67;;;19.80;99.90;;;;;;5095123;28;20032;-70
2023/07/21 07:40:18;;;;;;;1.90;1.75;;;19.80;99.90;;;;;;5094787;28;20050;-70
2023/07/21 07:42:44;;;;;;;0.10;0.10;;;19.60;99.90;;;;;;5094502;28;20024;-69
2023/07/21 07:45:10;;;;;;;10.13;5.03;;;19.70;99.90;;;;;;5094690;28;20463;-70
2023/07/21 07:47:35;;;;;;;0.10;0.10;;;19.70;99.90;;;;;;5094486;28;20020;-70
2023/07/21 07:50:02;;;;;;;7.03;2.53;;;19.70;99.90;;;;;;5093542;28;20036;-70
2023/07/21 07:52:28;;;;;;;0.70;0.55;;;19.60;99.90;;;;;;5093122;28;20028;-70
2023/07/21 07:54:53;;;;;;;10.23;3.55;;;19.60;99.90;;;;;;5094518;28;20123;-70
2023/07/21 07:57:20;;;;;;;3.88;2.50;;;19.60;99.90;;;;;;5085804;28;20131;-69
2023/07/21 07:59:45;;;;;;;1.85;1.60;;;19.50;99.90;;;;;;5094591;28;20028;-70
2023/07/21 08:02:11;;;;;;;4.07;1.38;;;19.50;99.90;;;;;;5094193;28;20105;-70
2023/07/21 08:04:36;;;;;;;5.35;2.40;;;19.60;99.90;;;;;;5094452;28;20039;-71
2023/07/21 08:07:02;;;;;;;3.45;2.67;;;19.80;99.90;;;;;;5092838;28;20028;-69
2023/07/21 08:09:28;;;;;;;10.88;4.30;;;19.50;99.90;;;;;;5094124;28;20028;-70
2023/07/21 08:11:54;;;;;;;2.70;2.50;;;19.30;99.90;;;;;;5093926;28;20032;-69
2023/07/21 08:14:19;;;;;;;7.85;4.75;;;19.60;99.90;;;;;;5094227;28;20024;-70
2023/07/21 08:16:45;;;;;;;2.40;1.75;;;19.70;99.90;;;;;;5094105;28;20029;-69
2023/07/21 08:19:11;;;;;;;1.55;0.52;;;19.70;99.90;;;;;;5094094;28;20119;-71
2023/07/21 08:21:36;;;;;;;4.40;3.88;;;19.70;99.90;;;;;;5093953;28;20041;-70
2023/07/21 08:24:02;;;;;;;2.00;1.20;;;19.60;99.90;;;;;;5094143;28;20057;-69
2023/07/21 08:26:28;;;;;;;1.35;1.27;;;19.50;99.90;;;;;;5093170;28;20056;-70
2023/07/21 08:28:55;;;;;;;0.00;0.00;;;19.40;99.90;;;;;;5092523;28;20028;-69
2023/07/21 08:31:21;;;;;;;1.48;1.35;;;19.60;99.90;;;;;;5093690;28;20036;-69
2023/07/21 08:33:47;;;;;;;10.32;4.30;;;19.50;99.90;;;;;;5093813;28;20091;-69
2023/07/21 08:36:13;;;;;;;8.82;1.95;;;19.70;99.90;;;;;;5087203;28;20026;-70
2023/07/21 08:38:39;;;;;;;0.88;0.82;;;19.40;99.90;;;;;;5093598;28;20460;-74
2023/07/21 08:41:07;;;;;;;9.25;3.22;;;19.40;99.90;;;;;;5087613;28;20024;-74
2023/07/21 08:43:33;;;;;;;6.45;4.32;;;19.50;99.90;;;;;;5079574;28;20033;-73
2023/07/21 08:46:00;;;;;;;4.55;2.67;;;19.60;99.90;;;;;;5080992;28;20033;-74
2023/07/21 08:48:30;;;;;;;7.50;2.47;;;20.00;99.90;;;;;;5080154;28;20029;-75
2023/07/21 08:50:56;;;;;;;4.80;3.47;;;20.00;99.90;;;;;;5078273;28;20555;-73
2023/07/21 08:53:26;;;;;;;5.32;2.13;;;20.40;99.90;;;;;;5075813;28;20117;-75
2023/07/21 08:55:54;;;;;;;7.03;2.30;;;20.10;99.90;;;;;;5076140;28;20027;-75
2023/07/21 08:58:21;;;;;;;2.30;2.00;;;19.90;99.90;;;;;;5079067;28;20107;-74
2023/07/21 09:00:48;;;;;;;12.82;5.78;;;20.10;99.90;;;;;;5073568;28;20039;-71
2023/07/21 09:03:21;;;;;;;2.70;2.45;;;20.50;99.90;;;;;;5077097;28;20051;-74
2023/07/21 09:05:48;;;;;;;0.60;0.60;;;20.90;99.90;;;;;;5074670;28;20032;-75
2023/07/21 09:08:27;;;;;;;5.25;2.83;;;20.90;99.90;;;;;;5076367;28;20410;-75
2023/07/21 09:11:07;;;;;;;4.70;2.47;;;20.70;99.90;;;;;;5073557;28;20154;-74
2023/07/21 09:13:33;;;;;;;15.10;4.40;;;20.80;99.90;;;;;;5078643;28;20024;-74
2023/07/21 09:16:06;;;;;;;8.02;4.85;;;20.40;99.90;;;;;;5077191;28;20025;-74
2023/07/21 09:18:43;;;;;;;6.13;3.42;;;20.00;99.90;;;;;;5078499;28;20012;-75
2023/07/21 09:21:23;;;;;;;15.98;7.43;;;19.90;99.90;;;;;;5076467;28;20047;-77
2023/07/21 09:23:49;;;;;;;9.27;3.20;;;19.90;99.90;;;;;;5073631;28;20031;-74
2023/07/21 09:26:22;;;;;;;5.30;3.97;;;20.30;99.90;;;;;;5064469;28;20054;-75
2023/07/21 09:28:48;;;;;;;5.30;3.58;;;20.40;99.90;;;;;;5072424;28;20032;-74
2023/07/21 09:31:14;;;;;;;9.23;3.13;;;20.20;99.90;;;;;;5078143;28;20028;-73
2023/07/21 09:33:42;;;;;;;4.90;1.63;;;20.30;99.90;;;;;;5075589;28;20048;-74
2023/07/21 09:36:11;;;;;;;7.53;5.10;;;20.60;99.90;;;;;;5080804;28;20173;-75
2023/07/21 09:38:38;;;;;;;8.57;1.08;;;20.40;99.90;;;;;;5075570;28;20029;-75
2023/07/21 09:41:12;;;;;;;2.72;0.63;;;19.20;99.90;;;;;;5085244;28;20168;-74
2023/07/21 09:43:38;;;;;;;0.22;0.22;;;17.70;99.90;;;;;;5072912;28;20522;-74
2023/07/21 09:46:07;;;;;;;0.88;0.73;;;17.40;99.90;;;;;;5091364;28;20535;-73
2023/07/21 09:48:33;;;;;;;0.80;0.55;;;16.90;99.90;;;;;;5091289;28;20533;-74
2023/07/21 09:51:05;;;;;;;0.60;0.60;;;16.50;99.90;;;;;;5092166;28;20042;-74
2023/07/21 09:53:36;;;;;;;1.10;0.35;;;16.00;99.90;;;;;;5092135;28;20469;-73
2023/07/21 09:56:03;;;;;;;1.10;0.82;;;15.70;99.90;;;;;;5091075;28;20137;-73
2023/07/21 09:58:30;;;;;;;0.85;0.28;;;15.60;99.90;;;;;;5084298;28;20034;-71
2023/07/21 10:01:02;;;;;;;4.38;0.80;;;15.40;99.90;;;;;;5091762;28;20063;-71
2023/07/21 10:03:29;;;;;;;1.00;0.38;;;15.80;99.90;;;;;;5092101;28;20047;-70
2023/07/21 10:05:56;;;;;;;0.82;0.82;;;15.60;99.90;;;;;;5091378;28;20124;-69
2023/07/21 10:08:24;;;;;;;0.17;0.17;;;15.60;99.90;;;;;;5091928;28;20100;-69
2023/07/21 10:10:49;;;;;;;2.97;1.27;;;15.70;99.90;;;;;;5091866;28;20077;-69
2023/07/21 10:13:15;;;;;;;0.30;0.30;;;15.70;99.90;;;;;;5092007;28;20039;-70
2023/07/21 10:15:46;;;;;;;4.85;0.20;;;15.70;99.90;;;;;;5091923;28;20030;-70
2023/07/21 10:18:14;;;;;;;0.50;0.50;;;16.00;99.90;;;;;;5091730;28;20152;-71
2023/07/21 10:20:50;;;;;;;0.10;0.10;;;16.20;99.90;;;;;;5091899;28;20020;-70
2023/07/21 10:23:17;;;;;;;0.85;0.63;;;16.70;99.90;;;;;;5091497;28;20036;-70
2023/07/21 10:25:58;;;;;;;5.95;1.40;;;16.90;99.90;;;;;;5091715;28;20044;-70
2023/07/21 10:28:30;;;;;;;0.10;0.10;;;16.80;99.90;;;;;;5090425;28;20024;-70
2023/07/21 10:31:21;;;;;;;0.10;0.10;;;17.00;99.90;;;;;;5087190;28;20024;-71
2023/07/21 10:34:06;;;;;;;0.30;0.30;;;17.20;99.90;;;;;;5084290;28;20040;-71
2023/07/21 10:36:42;;;;;;;0.20;0.20;;;17.70;99.90;;;;;;5086005;28;20028;-69
2023/07/21 10:39:12;;;;;;;0.98;0.65;;;18.00;99.90;;;;;;5090181;28;20038;-70
2023/07/21 10:41:39;;;;;;;1.65;0.85;;;18.20;99.90;;;;;;5078508;28;20036;-70
2023/07/21 10:44:06;;;;;;;0.47;0.47;;;18.50;99.90;;;;;;5090225;28;20031;-71
2023/07/21 10:46:40;;;;;;;0.10;0.10;;;18.60;99.90;;;;;;5090795;28;20541;-70
2023/07/21 10:49:09;;;;;;;1.55;0.85;;;19.60;99.90;;;;;;5087604;28;20140;-70
2023/07/21 10:51:36;;;;;;;4.22;1.17;;;19.40;99.90;;;;;;5075852;28;20063;-70
2023/07/21 10:54:03;;;;;;;0.30;0.30;;;19.70;99.90;;;;;;5073518;28;20066;-70
2023/07/21 10:56:28;;;;;;;2.42;1.98;;;19.60;99.90;;;;;;5074628;28;20063;-70
2023/07/21 10:58:55;;;;;;;0.70;0.68;;;19.10;99.90;;;;;;5080618;28;20058;-71
2023/07/21 11:01:21;;;;;;;0.85;0.80;;;19.00;99.90;;;;;;5080567;28;20078;-69
2023/07/21 11:03:48;;;;;;;2.88;1.17;;;19.30;99.90;;;;;;5074073;28;20123;-70
2023/07/21 11:06:14;;;;;;;2.67;0.82;;;19.00;99.90;;;;;;5085405;28;20450;-69
2023/07/21 11:08:40;;;;;;;0.00;0.00;;;18.90;99.90;;;;;;5087800;28;20069;-70
2023/07/21 11:11:08;;;;;;;1.30;0.85;;;19.10;99.90;;;;;;5079361;28;20048;-70
2023/07/21 11:13:34;;;;;;;0.90;0.65;;;19.00;99.90;;;;;;5071822;28;20389;-70
2023/07/21 11:16:02;;;;;;;1.95;1.40;;;18.80;99.90;;;;;;5074219;28;20029;-69
2023/07/21 11:18:28;;;;;;;0.52;0.52;;;18.20;99.90;;;;;;5075322;28;20028;-71
2023/07/21 11:20:55;;;;;;;0.82;0.75;;;18.30;99.90;;;;;;5075826;28;20028;-70
2023/07/21 11:23:22;;;;;;;0.75;0.57;;;18.10;99.90;;;;;;5078878;28;20142;-71
2023/07/21 11:26:06;;;;;;;0.55;0.50;;;18.20;99.90;;;;;;5071151;28;20040;-73
2023/07/21 11:28:33;;;;;;;0.30;0.30;;;18.30;99.90;;;;;;5071829;28;20420;-70
2023/07/21 11:31:00;;;;;;;9.20;0.77;;;18.80;99.90;;;;;;5070463;28;20028;-72
2023/07/21 11:33:43;;;;;;;6.63;0.98;;;19.40;99.90;;;;;;5071705;28;20036;-74
2023/07/21 11:36:16;;;;;;;0.20;0.20;;;19.60;99.90;;;;;;5071104;28;20021;-71
2023/07/21 11:38:55;;;;;;;0.10;0.10;;;19.70;99.90;;;;;;5075988;28;20032;-71
2023/07/21 11:41:36;;;;;;;8.40;1.42;;;19.90;99.90;;;;;;5083046;28;20040;-71
2023/07/21 11:44:05;;;;;;;0.30;0.30;;;19.70;99.90;;;;;;5093260;28;20043;-71
2023/07/21 11:46:31;;;;;;;0.73;0.73;;;19.80;99.90;;;;;;5092733;28;20123;-71
2023/07/21 11:48:57;;;;;;;4.70;1.92;;;19.90;99.90;;;;;;5095185;28;20115;-71
2023/07/21 11:51:23;;;;;;;0.08;0.08;;;19.90;99.90;;;;;;5095587;28;20028;-71
2023/07/21 11:53:49;;;;;;;2.53;1.42;;;19.80;99.90;;;;;;5094110;28;20412;-71
2023/07/21 11:56:15;;;;;;;1.75;1.02;;;19.80;99.90;;;;;;5095273;28;20060;-71
2023/07/21 11:58:42;;;;;;;1.02;1.00;;;19.60;99.90;;;;;;5095506;28;20056;-72
2023/07/21 12:01:08;;;;;;;6.78;1.80;;;19.90;99.90;;;;;;5095187;28;20039;-71
2023/07/21 12:03:37;;;;;;;2.35;1.33;;;20.30;99.90;;;;;;5094927;28;20044;-71
2023/07/21 12:06:03;;;;;;;0.65;0.65;;;20.50;99.90;;;;;;5095206;28;20043;-71
2023/07/21 12:08:30;;;;;;;3.13;1.30;;;20.90;99.90;;;;;;5095142;28;20032;-71
2023/07/21 12:10:57;;;;;;;0.93;0.88;;;20.90;99.90;;;;;;5095204;28;20074;-71
2023/07/21 12:13:24;;;;;;;1.20;0.85;;;20.70;99.90;;;;;;5094907;28;20074;-71
2023/07/21 12:15:50;;;;;;;1.85;1.27;;;20.80;99.90;;;;;;5095104;28;20039;-71
2023/07/21 12:18:17;;;;;;;1.70;1.25;;;21.00;99.90;;;;;;5094606;28;20032;-71
2023/07/21 12:20:42;;;;;;;3.65;1.00;;;21.50;99.90;;;;;;5086573;28;20033;-71
2023/07/21 12:23:08;;;;;;;0.98;0.63;;;21.90;99.90;;;;;;5086713;28;20095;-71
2023/07/21 12:25:34;;;;;;;0.70;0.25;;;21.80;99.90;;;;;;5093764;28;20039;-71
2023/07/21 12:28:00;;;;;;;1.98;1.00;;;21.90;99.90;;;;;;5094834;28;20099;-71
2023/07/21 12:30:29;;;;;;;0.15;0.15;;;22.20;98.70;;;;;;5093789;28;20490;-71
2023/07/21 12:32:54;;;;;;;0.85;0.77;;;22.20;99.10;;;;;;5094838;28;20032;-71
2023/07/21 12:35:20;;;;;;;3.85;1.35;;;22.10;96.70;;;;;;5094833;28;20097;-71
2023/07/21 12:37:46;;;;;;;0.38;0.38;;;22.00;95.40;;;;;;5093351;28;20051;-71
2023/07/21 12:40:15;;;;;;;0.47;0.47;;;22.20;95.40;;;;;;5093259;28;20016;-71
2023/07/21 12:42:41;;;;;;;2.30;1.83;;;22.70;94.20;;;;;;5094656;28;20107;-71
2023/07/21 12:45:08;;;;;;;1.60;1.25;;;22.60;92.60;;;;;;5094584;28;20028;-71
2023/07/21 12:47:35;;;;;;;1.92;1.70;;;23.10;90.10;;;;;;5094049;28;20099;-71
2023/07/21 12:50:01;;;;;;;3.83;1.45;;;22.90;90.50;;;;;;5094644;28;20107;-71
2023/07/21 12:52:27;;;;;;;2.78;0.93;;;23.00;92.50;;;;;;5093962;28;20479;-72
2023/07/21 12:54:52;;;;;;;0.47;0.43;;;23.20;91.30;;;;;;5092862;28;20498;-71